createdAt,value
2022-11-12T17:01:01.828Z,12.70
2022-11-12T17:03:29.097Z,16.10
2022-11-12T17:06:03.799Z,16.00
2022-11-12T17:08:33.876Z,14.30
2022-11-12T17:11:12.799Z,15.90
2022-11-12T17:13:59.797Z,16.50
2022-11-12T17:16:37.001Z,16.50
2022-11-12T17:19:04.005Z,18.20
2022-11-12T17:21:37.778Z,16.30
2022-11-12T17:24:04.985Z,16.70
2022-11-12T17:26:38.986Z,17.70
2022-11-12T17:31:41.804Z,20.20
2022-11-12T17:34:14.869Z,16.40
2022-11-12T17:36:43.778Z,20.50
2022-11-12T17:39:18.788Z,17.50
2022-11-12T17:41:45.667Z,16.20
2022-11-12T17:44:27.793Z,17.70
2022-11-12T17:47:00.776Z,19.10
2022-11-12T17:49:27.612Z,16.10
2022-11-12T17:52:01.798Z,17.20
2022-11-12T17:57:04.036Z,15.70
2022-11-12T17:59:50.877Z,17.80
2022-11-12T18:02:26.000Z,17.00
2022-11-12T18:04:53.061Z,21.30
2022-11-12T18:07:26.792Z,20.50
2022-11-12T18:09:53.830Z,21.00
2022-11-12T18:12:20.696Z,18.70
2022-11-12T18:14:53.794Z,22.60
2022-11-12T18:17:20.666Z,19.40
2022-11-12T18:19:53.780Z,22.30
2022-11-12T18:22:20.935Z,17.30
2022-11-12T18:24:59.785Z,20.10
2022-11-12T18:27:27.201Z,18.00
2022-11-12T18:30:00.784Z,21.00
2022-11-12T18:32:27.598Z,19.80
2022-11-12T18:35:00.837Z,21.50
2022-11-12T18:37:27.692Z,27.00
2022-11-12T18:39:54.532Z,23.30
2022-11-12T18:42:27.796Z,29.20
2022-11-12T18:44:54.796Z,22.60
2022-11-12T18:47:28.786Z,20.20
2022-11-12T18:49:56.945Z,17.90
2022-11-12T18:52:33.019Z,19.70
2022-11-12T18:55:07.368Z,20.20
2022-11-12T18:57:34.390Z,18.60
2022-11-12T19:00:15.906Z,19.10
2022-11-12T19:02:43.604Z,19.90
2022-11-12T19:05:16.989Z,17.20
2022-11-12T19:07:44.186Z,18.20
2022-11-12T19:10:14.935Z,16.20
2022-11-12T19:12:48.894Z,23.20
2022-11-12T19:15:15.769Z,17.40
2022-11-12T19:17:49.781Z,19.00
2022-11-12T19:20:16.996Z,15.80
2022-11-12T19:22:51.785Z,17.90
2022-11-12T19:25:26.422Z,20.10
2022-11-12T19:28:00.982Z,17.10
2022-11-12T19:30:28.735Z,17.30
2022-11-12T19:33:04.785Z,19.60
2022-11-12T19:35:39.390Z,22.70
2022-11-12T19:38:13.403Z,35.40
2022-11-12T19:40:40.891Z,21.80
2022-11-12T19:43:15.799Z,28.80
2022-11-12T19:45:47.268Z,25.20
2022-11-12T19:48:22.067Z,25.30
2022-11-12T19:50:48.945Z,25.30
2022-11-12T19:53:22.785Z,20.20
2022-11-12T19:55:56.870Z,24.30
2022-11-12T20:01:16.973Z,18.40
2022-11-12T20:03:49.888Z,68.80
2022-11-12T20:06:25.810Z,50.70
2022-11-12T20:08:52.775Z,37.80
2022-11-12T20:11:29.024Z,28.70
2022-11-12T20:13:56.567Z,30.00
2022-11-12T20:16:31.775Z,27.40
2022-11-12T20:19:06.793Z,30.20
2022-11-12T20:21:33.573Z,33.60
2022-11-12T20:24:09.514Z,30.80
2022-11-12T20:26:36.623Z,30.70
2022-11-12T20:29:09.778Z,29.50
2022-11-12T20:31:38.371Z,31.20
2022-11-12T20:34:11.782Z,33.80
2022-11-12T20:36:44.758Z,30.40
2022-11-12T20:39:11.602Z,32.60
2022-11-12T20:41:44.756Z,36.10
2022-11-12T20:44:11.663Z,28.30
